createdAt,value
2023-05-12T00:00:07.040Z,4.10
2023-05-12T00:05:06.571Z,4.30
2023-05-12T00:10:07.083Z,3.90
2023-05-12T00:15:06.890Z,3.80
2023-05-12T00:20:06.504Z,3.80
2023-05-12T00:25:06.194Z,4.10
2023-05-12T00:30:06.628Z,3.90
2023-05-12T00:35:06.214Z,3.80
2023-05-12T00:40:07.532Z,4.00
2023-05-12T00:45:07.383Z,3.90
2023-05-12T00:50:07.746Z,3.60
2023-05-12T00:55:06.927Z,3.70
2023-05-12T01:00:07.633Z,3.90
2023-05-12T01:05:06.201Z,3.70
2023-05-12T01:10:16.790Z,3.60
2023-05-12T01:15:09.626Z,3.50
2023-05-12T01:20:08.871Z,3.60
2023-05-12T01:25:08.785Z,3.70
2023-05-12T01:30:07.601Z,3.60
2023-05-12T01:35:06.268Z,3.60
2023-05-12T01:40:07.212Z,3.30
2023-05-12T01:45:06.508Z,3.60
2023-05-12T01:50:06.064Z,3.40
2023-05-12T01:55:07.270Z,3.40
2023-05-12T02:00:07.955Z,3.40
2023-05-12T02:05:06.236Z,3.40
2023-05-12T02:10:07.293Z,3.60
2023-05-12T02:15:06.117Z,3.00
2023-05-12T02:20:06.740Z,3.60
2023-05-12T02:25:06.371Z,3.50
2023-05-12T02:30:07.025Z,3.40
2023-05-12T02:35:06.442Z,3.20
2023-05-12T02:40:07.452Z,3.00
2023-05-12T02:45:06.514Z,3.50
2023-05-12T02:50:06.547Z,3.40
2023-05-12T02:55:06.098Z,3.60
2023-05-12T03:00:07.139Z,3.60
2023-05-12T03:05:08.144Z,3.30
2023-05-12T03:10:07.941Z,3.70
2023-05-12T03:15:06.771Z,3.40
2023-05-12T03:20:06.705Z,3.90
2023-05-12T03:25:09.233Z,4.00
2023-05-12T03:30:06.789Z,3.30
2023-05-12T03:35:06.243Z,3.60
2023-05-12T03:40:06.905Z,3.80
2023-05-12T03:45:06.481Z,3.70
2023-05-12T03:50:06.945Z,3.50
2023-05-12T03:55:07.211Z,3.50
2023-05-12T04:00:07.830Z,3.40
2023-05-12T04:05:07.204Z,3.80
2023-05-12T04:10:07.350Z,3.70
2023-05-12T04:15:06.842Z,3.30
2023-05-12T04:20:06.487Z,3.30
2023-05-12T04:25:06.484Z,3.10
2023-05-12T04:30:06.666Z,3.20
2023-05-12T04:35:05.827Z,3.70
2023-05-12T04:40:07.943Z,3.90
2023-05-12T04:45:06.357Z,3.90
2023-05-12T04:50:06.445Z,4.10
2023-05-12T04:55:06.912Z,3.80
2023-05-12T05:00:08.040Z,4.50
2023-05-12T05:05:06.055Z,4.20
2023-05-12T05:10:06.562Z,3.70
2023-05-12T05:15:06.537Z,3.90
2023-05-12T05:20:11.703Z,4.00
2023-05-12T05:25:07.235Z,3.80
2023-05-12T05:25:37.765Z,3.80
2023-05-12T05:30:07.745Z,3.60
2023-05-12T05:35:06.967Z,3.60
2023-05-12T05:40:07.285Z,3.60
2023-05-12T05:45:06.524Z,3.60
2023-05-12T05:50:06.474Z,3.50
2023-05-12T05:55:06.984Z,3.40
2023-05-12T06:00:08.043Z,3.60
2023-05-12T06:05:05.957Z,3.00
2023-05-12T06:10:07.500Z,2.80
2023-05-12T06:15:06.464Z,3.10
2023-05-12T06:20:06.699Z,3.30
2023-05-12T06:25:06.177Z,3.10
2023-05-12T06:30:06.601Z,3.40
2023-05-12T06:35:05.863Z,2.80
2023-05-12T06:40:06.610Z,3.20
2023-05-12T06:45:07.053Z,2.60
2023-05-12T06:50:06.745Z,2.80
2023-05-12T06:55:06.100Z,2.40
2023-05-12T07:00:06.679Z,3.00
2023-05-12T07:05:05.840Z,2.60
2023-05-12T07:10:07.735Z,2.60
2023-05-12T07:15:07.427Z,2.50
2023-05-12T07:20:06.478Z,2.30
2023-05-12T07:25:06.936Z,2.30
2023-05-12T07:30:07.172Z,2.60
2023-05-12T07:35:06.579Z,2.10
2023-05-12T07:40:07.349Z,2.10
2023-05-12T07:45:06.116Z,2.30
2023-05-12T07:50:06.294Z,2.20
2023-05-12T07:55:06.117Z,2.30
2023-05-12T08:00:08.553Z,1.90
2023-05-12T08:05:07.970Z,2.30
2023-05-12T08:10:06.032Z,2.40
2023-05-12T08:15:06.782Z,2.40
2023-05-12T08:20:06.349Z,2.80
2023-05-12T08:25:06.413Z,2.10
2023-05-12T08:30:06.098Z,2.70
2023-05-12T08:35:05.650Z,2.80
2023-05-12T08:40:15.561Z,2.40
2023-05-12T08:45:07.462Z,2.40
2023-05-12T08:50:08.401Z,2.80
2023-05-12T08:55:08.208Z,2.10
2023-05-12T09:00:07.897Z,2.60
2023-05-12T09:05:07.001Z,2.70
2023-05-12T09:10:15.085Z,1.90
2023-05-12T09:15:09.243Z,2.10
2023-05-12T09:20:08.650Z,2.10
2023-05-12T09:25:15.665Z,2.70
2023-05-12T09:30:06.419Z,2.30
2023-05-12T09:35:10.225Z,2.00
2023-05-12T09:40:07.221Z,1.90
2023-05-12T09:45:08.719Z,2.50
2023-05-12T09:50:07.534Z,2.30
2023-05-12T09:55:08.764Z,2.10
2023-05-12T10:00:16.952Z,1.90
2023-05-12T10:05:13.993Z,2.20
2023-05-12T10:10:07.036Z,2.00
2023-05-12T10:15:08.720Z,3.40
2023-05-12T10:20:07.603Z,1.80
2023-05-12T10:25:07.814Z,2.40
2023-05-12T10:30:07.356Z,2.10
2023-05-12T10:35:07.886Z,2.20
2023-05-12T10:40:06.830Z,4.70
2023-05-12T10:45:16.578Z,2.00
2023-05-12T10:50:06.857Z,2.30
2023-05-12T10:55:12.015Z,2.30
2023-05-12T11:00:12.089Z,2.00
2023-05-12T11:05:10.946Z,2.00
2023-05-12T11:10:08.046Z,1.90
2023-05-12T11:15:06.586Z,1.90
2023-05-12T11:20:08.806Z,2.10
2023-05-12T11:25:10.160Z,2.00
2023-05-12T11:30:08.147Z,2.20
2023-05-12T11:35:08.792Z,2.00
2023-05-12T11:40:14.020Z,1.90
2023-05-12T11:45:06.449Z,2.00
2023-05-12T11:50:06.570Z,2.10
2023-05-12T11:55:06.982Z,2.30
2023-05-12T12:00:08.141Z,2.10
2023-05-12T12:05:16.411Z,2.20
2023-05-12T12:10:13.956Z,2.10
2023-05-12T12:15:06.337Z,1.80
2023-05-12T12:20:06.809Z,2.20
2023-05-12T12:25:06.483Z,2.00
2023-05-12T12:30:07.017Z,2.50
2023-05-12T12:35:06.464Z,2.20
2023-05-12T12:40:07.280Z,2.00
2023-05-12T12:45:07.471Z,2.80
2023-05-12T12:50:06.809Z,1.90
2023-05-12T12:55:06.349Z,2.30
2023-05-12T13:00:07.402Z,2.50
2023-05-12T13:05:06.251Z,2.20
2023-05-12T13:10:06.087Z,2.10
2023-05-12T13:15:06.479Z,2.00
2023-05-12T13:20:07.837Z,2.40
2023-05-12T13:25:06.965Z,2.00
2023-05-12T13:30:09.115Z,2.20
2023-05-12T13:35:06.978Z,2.30
2023-05-12T13:40:06.680Z,2.10
2023-05-12T13:45:06.255Z,2.20
2023-05-12T13:50:06.202Z,2.10
2023-05-12T13:55:09.485Z,2.70
2023-05-12T14:00:09.815Z,2.70
2023-05-12T14:05:07.774Z,2.10
2023-05-12T14:10:06.783Z,2.30
2023-05-12T14:15:23.617Z,2.30
2023-05-12T14:20:07.215Z,2.20
2023-05-12T14:25:08.136Z,2.10
2023-05-12T14:30:06.655Z,1.80
2023-05-12T14:35:08.238Z,2.10
2023-05-12T14:40:08.874Z,2.20
2023-05-12T14:45:08.891Z,1.80
2023-05-12T14:50:08.316Z,2.20
2023-05-12T14:55:10.936Z,1.80
2023-05-12T15:00:14.119Z,2.70
2023-05-12T15:05:08.993Z,1.90
2023-05-12T15:10:06.241Z,2.30
2023-05-12T15:15:11.891Z,2.30
2023-05-12T15:20:09.981Z,1.70
2023-05-12T15:25:07.532Z,2.00
2023-05-12T15:30:07.918Z,2.20
2023-05-12T15:35:06.292Z,1.90
2023-05-12T15:40:06.443Z,2.20
2023-05-12T15:45:06.220Z,1.90
2023-05-12T15:50:07.091Z,2.10
2023-05-12T15:55:05.537Z,2.30
2023-05-12T16:00:06.153Z,2.00
2023-05-12T16:05:06.221Z,2.00
2023-05-12T16:10:06.131Z,2.30
2023-05-12T16:15:06.149Z,1.90
2023-05-12T16:20:06.872Z,2.40
2023-05-12T16:25:05.645Z,1.70
2023-05-12T16:30:06.190Z,2.10
2023-05-12T16:35:07.051Z,2.20
2023-05-12T16:40:06.309Z,2.40
2023-05-12T16:45:06.085Z,2.60
2023-05-12T16:50:06.918Z,2.10
2023-05-12T16:55:06.132Z,2.00
2023-05-12T17:00:08.504Z,2.10
2023-05-12T17:05:06.028Z,2.50
2023-05-12T17:10:05.752Z,2.00
2023-05-12T17:15:08.390Z,2.30
2023-05-12T17:20:06.588Z,3.70
2023-05-12T17:25:05.543Z,2.80
2023-05-12T17:30:06.182Z,2.70
2023-05-12T17:35:07.034Z,3.20
2023-05-12T17:40:06.705Z,2.30
2023-05-12T17:45:06.193Z,2.70
2023-05-12T17:50:09.756Z,2.70
2023-05-12T17:55:05.852Z,2.60
2023-05-12T18:00:08.923Z,2.40
2023-05-12T18:05:06.481Z,3.00
2023-05-12T18:10:07.778Z,3.00
2023-05-12T18:15:06.389Z,2.70
2023-05-12T18:20:07.911Z,3.10
2023-05-12T18:25:07.501Z,2.90
2023-05-12T18:30:06.159Z,3.10
2023-05-12T18:35:06.115Z,3.20
2023-05-12T18:40:06.409Z,3.10
2023-05-12T18:45:06.976Z,3.70
2023-05-12T18:50:06.413Z,4.20
2023-05-12T18:55:06.238Z,3.80
2023-05-12T19:00:06.503Z,3.90
2023-05-12T19:05:05.941Z,3.60
2023-05-12T19:10:06.352Z,3.60
2023-05-12T19:15:06.405Z,4.60
2023-05-12T19:20:06.070Z,4.70
2023-05-12T19:25:05.698Z,6.80
2023-05-12T19:30:05.984Z,7.00
2023-05-12T19:35:06.060Z,8.70
2023-05-12T19:40:06.218Z,9.10
2023-05-12T19:45:05.977Z,9.20
2023-05-12T19:50:06.591Z,8.50
2023-05-12T19:55:06.398Z,8.20
2023-05-12T20:00:05.912Z,9.00
2023-05-12T20:05:06.049Z,8.90
2023-05-12T20:10:06.442Z,9.10
2023-05-12T20:15:07.949Z,9.80
2023-05-12T20:20:06.172Z,10.10
2023-05-12T20:25:05.835Z,9.50
2023-05-12T20:30:06.358Z,10.40
2023-05-12T20:35:05.448Z,10.10
2023-05-12T20:40:06.710Z,9.40
2023-05-12T20:45:05.877Z,9.90
2023-05-12T20:50:06.419Z,10.20
2023-05-12T20:55:07.301Z,10.40
2023-05-12T21:00:06.505Z,9.10
2023-05-12T21:05:05.775Z,9.60
2023-05-12T21:10:05.924Z,9.30
2023-05-12T21:15:09.359Z,9.80
2023-05-12T21:20:06.508Z,9.60
2023-05-12T21:25:06.532Z,10.50
2023-05-12T21:30:06.772Z,9.90
2023-05-12T21:35:06.271Z,11.40
2023-05-12T21:40:06.976Z,12.60
2023-05-12T21:45:05.752Z,12.50
2023-05-12T21:50:05.897Z,12.50
2023-05-12T21:55:06.037Z,12.30
2023-05-12T22:00:08.773Z,12.80
2023-05-12T22:05:06.824Z,12.70
2023-05-12T22:10:06.120Z,13.40
2023-05-12T22:15:05.832Z,13.30
2023-05-12T22:20:06.027Z,14.70
2023-05-12T22:25:06.499Z,14.30
2023-05-12T22:30:05.917Z,14.90
2023-05-12T22:35:05.966Z,14.50
2023-05-12T22:40:06.256Z,14.50
2023-05-12T22:45:05.877Z,13.90
2023-05-12T22:50:05.815Z,13.20
2023-05-12T22:55:05.913Z,14.10
2023-05-12T23:00:06.755Z,12.60
2023-05-12T23:05:06.074Z,12.30
2023-05-12T23:10:06.215Z,11.60
2023-05-12T23:15:06.664Z,12.90
2023-05-12T23:20:06.397Z,12.80
2023-05-12T23:25:05.840Z,12.30
2023-05-12T23:30:06.211Z,13.30
2023-05-12T23:35:05.708Z,13.50
2023-05-12T23:40:07.673Z,12.80
2023-05-12T23:45:05.809Z,13.90
2023-05-12T23:50:06.397Z,13.10
2023-05-12T23:55:06.609Z,14.10
